createdAt,value
2023-03-11T00:00:30.191Z,-1.10
2023-03-11T00:02:58.760Z,-1.10
2023-03-11T00:05:33.730Z,-1.10
2023-03-11T00:08:01.131Z,-1.20
2023-03-11T00:10:31.691Z,-1.20
2023-03-11T00:13:01.727Z,-1.30
2023-03-11T00:15:29.154Z,-1.30
2023-03-11T00:17:57.333Z,-1.30
2023-03-11T00:20:27.156Z,-1.30
2023-03-11T00:22:54.308Z,-1.30
2023-03-11T00:25:22.031Z,-1.50
2023-03-11T00:27:51.205Z,-1.50
2023-03-11T00:30:21.521Z,-1.50
2023-03-11T00:32:49.357Z,-1.50
2023-03-11T00:35:18.104Z,-1.50
2023-03-11T00:37:47.969Z,-1.50
2023-03-11T00:40:16.444Z,-1.50
2023-03-11T00:42:43.560Z,-1.60
2023-03-11T00:45:11.408Z,-1.60
2023-03-11T00:47:40.526Z,-1.60
2023-03-11T00:50:14.130Z,-1.60
2023-03-11T00:52:44.191Z,-1.50
2023-03-11T00:55:15.576Z,-1.50
2023-03-11T00:57:43.082Z,-1.60
2023-03-11T01:00:16.573Z,-1.60
2023-03-11T01:02:45.996Z,-1.60
2023-03-11T01:05:13.065Z,-1.60
2023-03-11T01:07:42.904Z,-1.60
2023-03-11T01:10:14.894Z,-1.60
2023-03-11T01:12:42.065Z,-1.60
2023-03-11T01:15:12.136Z,-1.60
2023-03-11T01:17:42.069Z,-1.70
2023-03-11T01:20:14.836Z,-1.70
2023-03-11T01:22:49.153Z,-1.70
2023-03-11T01:25:19.650Z,-1.70
2023-03-11T01:27:53.462Z,-1.80
2023-03-11T01:30:24.448Z,-1.80
2023-03-11T01:32:53.909Z,-1.80
2023-03-11T01:35:24.526Z,-1.90
2023-03-11T01:37:56.261Z,-1.90
2023-03-11T01:40:33.700Z,-1.90
2023-03-11T01:43:05.697Z,-1.90
2023-03-11T01:45:39.443Z,-2.00
2023-03-11T01:48:10.569Z,-2.00
2023-03-11T01:50:46.598Z,-2.10
2023-03-11T01:53:14.014Z,-2.10
2023-03-11T01:55:43.820Z,-2.10
2023-03-11T01:58:16.408Z,-2.10
2023-03-11T02:00:48.148Z,-2.20
2023-03-11T02:03:30.954Z,-2.20
2023-03-11T02:05:58.405Z,-2.20
2023-03-11T02:08:25.380Z,-2.20
2023-03-11T02:10:54.914Z,-2.30
2023-03-11T02:13:26.646Z,-2.30
2023-03-11T02:15:56.131Z,-2.30
2023-03-11T02:18:26.738Z,-2.30
2023-03-11T02:21:17.996Z,-2.30
2023-03-11T02:23:51.022Z,-2.30
2023-03-11T02:26:25.079Z,-2.40
2023-03-11T02:28:53.015Z,-2.40
2023-03-11T02:31:29.855Z,-2.50
2023-03-11T02:34:01.783Z,-2.50
2023-03-11T02:36:44.627Z,-2.50
2023-03-11T02:39:16.998Z,-2.60
2023-03-11T02:41:47.416Z,-2.50
2023-03-11T02:44:15.081Z,-2.50
2023-03-11T02:46:49.758Z,-2.60
2023-03-11T02:49:19.221Z,-2.50
2023-03-11T02:51:46.222Z,-2.60
2023-03-11T02:54:15.799Z,-2.60
2023-03-11T02:56:46.419Z,-2.60
2023-03-11T02:59:20.345Z,-2.70
2023-03-11T03:01:52.551Z,-2.70
2023-03-11T03:04:22.371Z,-2.70
2023-03-11T03:06:49.559Z,-2.80
2023-03-11T03:09:18.756Z,-2.80
2023-03-11T03:11:45.749Z,-2.80
2023-03-11T03:14:15.095Z,-2.80
2023-03-11T03:16:42.307Z,-2.90
2023-03-11T03:19:09.329Z,-2.90
2023-03-11T03:21:36.558Z,-2.90
2023-03-11T03:24:04.193Z,-2.90
2023-03-11T03:26:40.474Z,-2.90
2023-03-11T03:29:11.145Z,-3.00
2023-03-11T03:31:41.808Z,-3.00
2023-03-11T03:34:08.999Z,-3.00
2023-03-11T03:36:39.188Z,-3.00
2023-03-11T03:39:11.247Z,-3.00
2023-03-11T03:41:38.257Z,-3.00
2023-03-11T03:44:06.654Z,-3.00
2023-03-11T03:46:42.111Z,-3.10
2023-03-11T03:49:10.012Z,-3.10
2023-03-11T03:51:39.651Z,-3.10
2023-03-11T03:54:20.696Z,-3.10
2023-03-11T03:56:49.973Z,-3.10
2023-03-11T03:59:17.177Z,-3.10
2023-03-11T04:01:49.859Z,-3.20
2023-03-11T04:04:18.573Z,-3.20
2023-03-11T04:06:47.610Z,-3.20
2023-03-11T04:09:18.505Z,-3.10
2023-03-11T04:11:45.986Z,-3.20
2023-03-11T04:14:15.103Z,-3.20
2023-03-11T04:16:50.125Z,-3.20
2023-03-11T04:19:17.239Z,-3.20
2023-03-11T04:21:48.923Z,-3.20
2023-03-11T04:24:20.127Z,-3.20
2023-03-11T04:26:49.855Z,-3.20
2023-03-11T04:29:19.931Z,-3.30
2023-03-11T04:31:54.979Z,-3.20
2023-03-11T04:34:21.972Z,-3.30
2023-03-11T04:36:55.090Z,-3.30
2023-03-11T04:39:27.458Z,-3.30
2023-03-11T04:41:57.538Z,-3.20
2023-03-11T04:44:26.275Z,-3.20
2023-03-11T04:46:53.318Z,-3.10
2023-03-11T04:49:22.500Z,-3.10
2023-03-11T04:51:50.982Z,-3.00
2023-03-11T04:54:21.088Z,-2.80
2023-03-11T04:56:52.856Z,-2.80
2023-03-11T04:59:23.831Z,-2.70
2023-03-11T05:01:52.158Z,-2.60
2023-03-11T05:04:21.959Z,-2.50
2023-03-11T05:06:51.274Z,-2.40
2023-03-11T05:09:18.938Z,-2.40
2023-03-11T05:11:48.539Z,-2.30
2023-03-11T05:14:18.428Z,-2.30
2023-03-11T05:16:48.062Z,-2.20
2023-03-11T05:19:35.570Z,-2.20
2023-03-11T05:22:13.824Z,-2.10
2023-03-11T05:24:44.124Z,-2.10
2023-03-11T05:27:11.569Z,-2.10
2023-03-11T05:29:39.754Z,-2.00
2023-03-11T05:32:19.262Z,-2.00
2023-03-11T05:34:50.172Z,-2.00
2023-03-11T05:37:22.911Z,-2.00
2023-03-11T05:39:52.306Z,-1.90
2023-03-11T05:42:24.913Z,-1.90
2023-03-11T05:44:54.450Z,-1.90
2023-03-11T05:47:25.251Z,-1.90
2023-03-11T05:49:52.882Z,-1.80
2023-03-11T05:52:20.759Z,-1.80
2023-03-11T05:54:51.706Z,-1.80
2023-03-11T05:57:22.710Z,-1.70
2023-03-11T05:59:59.029Z,-1.70
2023-03-11T06:02:33.870Z,-1.70
2023-03-11T06:05:03.403Z,-1.70
2023-03-11T06:07:35.603Z,-1.70
2023-03-11T06:10:04.220Z,-1.70
2023-03-11T06:12:38.981Z,-1.60
2023-03-11T06:15:17.185Z,-1.60
2023-03-11T06:17:44.759Z,-1.60
2023-03-11T06:20:15.032Z,-1.50
2023-03-11T06:22:45.376Z,-1.50
2023-03-11T06:25:12.971Z,-1.50
2023-03-11T06:27:41.717Z,-1.50
2023-03-11T06:30:10.301Z,-1.50
2023-03-11T06:32:47.622Z,-1.50
2023-03-11T06:35:19.394Z,-1.50
2023-03-11T06:37:51.903Z,-1.50
2023-03-11T06:40:21.597Z,-1.50
2023-03-11T06:42:50.968Z,-1.40
2023-03-11T06:45:21.901Z,-1.40
2023-03-11T06:47:52.235Z,-1.50
2023-03-11T06:50:24.068Z,-1.40
2023-03-11T06:52:57.353Z,-1.30
2023-03-11T06:55:24.341Z,-1.30
2023-03-11T06:57:53.672Z,-1.30
2023-03-11T07:00:20.713Z,-1.30
2023-03-11T07:02:55.624Z,-1.20
2023-03-11T07:05:23.584Z,-1.20
2023-03-11T07:07:55.758Z,-1.10
2023-03-11T07:10:26.394Z,-1.10
2023-03-11T07:12:53.419Z,-1.10
2023-03-11T07:15:20.385Z,-1.00
2023-03-11T07:17:47.403Z,-0.90
2023-03-11T07:20:14.962Z,-0.90
2023-03-11T07:22:41.932Z,-0.90
2023-03-11T07:25:11.505Z,-0.90
2023-03-11T07:27:42.998Z,-0.80
2023-03-11T07:30:13.509Z,-0.70
2023-03-11T07:32:42.741Z,-0.80
2023-03-11T07:35:11.978Z,-0.70
2023-03-11T07:37:38.887Z,-0.70
2023-03-11T07:40:06.372Z,-0.60
2023-03-11T07:42:34.898Z,-0.50
2023-03-11T07:45:05.481Z,-0.50
2023-03-11T07:47:32.427Z,-0.40
2023-03-11T07:49:59.440Z,-0.30
2023-03-11T07:52:26.408Z,-0.20
2023-03-11T07:54:55.688Z,-0.10
2023-03-11T07:57:24.832Z,-0.10
2023-03-11T07:59:54.346Z,-0.10
2023-03-11T08:02:21.361Z,0.00
2023-03-11T08:04:48.404Z,0.00
2023-03-11T08:07:17.626Z,0.20
2023-03-11T08:09:44.570Z,0.30
2023-03-11T08:12:18.208Z,0.40
2023-03-11T08:14:45.138Z,0.50
2023-03-11T08:17:12.237Z,0.60
2023-03-11T08:19:39.161Z,0.70
2023-03-11T08:22:08.376Z,0.80
2023-03-11T08:24:38.382Z,0.90
2023-03-11T08:27:05.406Z,1.00
2023-03-11T08:29:34.580Z,1.10
2023-03-11T08:32:04.827Z,1.40
2023-03-11T08:34:35.201Z,1.50
2023-03-11T08:37:02.607Z,1.60
2023-03-11T08:39:32.046Z,1.70
2023-03-11T08:42:03.140Z,1.80
2023-03-11T08:44:32.425Z,1.90
2023-03-11T08:47:02.501Z,1.90
2023-03-11T08:49:29.711Z,2.00
2023-03-11T08:51:56.705Z,2.10
2023-03-11T08:54:26.125Z,2.10
2023-03-11T08:56:53.051Z,2.10
2023-03-11T08:59:20.129Z,2.20
2023-03-11T09:01:47.090Z,2.20
2023-03-11T09:04:14.097Z,2.30
2023-03-11T09:06:46.478Z,2.30
2023-03-11T09:09:16.396Z,2.40
2023-03-11T09:11:45.525Z,2.60
2023-03-11T09:14:12.439Z,2.80
2023-03-11T09:16:39.366Z,3.00
2023-03-11T09:19:08.649Z,3.10
2023-03-11T09:21:38.080Z,3.10
2023-03-11T09:24:09.971Z,3.20
2023-03-11T09:26:41.537Z,3.30
2023-03-11T09:29:11.051Z,3.50
2023-03-11T09:31:44.879Z,3.50
2023-03-11T09:34:16.705Z,3.70
2023-03-11T09:36:43.975Z,3.80
2023-03-11T09:39:10.881Z,3.90
2023-03-11T09:41:57.813Z,4.00
2023-03-11T09:45:05.642Z,4.00
2023-03-11T09:47:55.669Z,4.10
2023-03-11T09:50:36.034Z,4.10
2023-03-11T09:53:08.824Z,4.10
2023-03-11T09:55:37.428Z,4.20
2023-03-11T09:58:23.121Z,4.20
2023-03-11T10:00:52.732Z,4.40
2023-03-11T10:03:27.242Z,4.40
2023-03-11T10:06:01.944Z,4.50
2023-03-11T10:08:40.709Z,4.50
2023-03-11T10:11:16.298Z,4.50
2023-03-11T10:13:57.096Z,4.50
2023-03-11T10:16:31.810Z,4.50
2023-03-11T10:19:01.583Z,4.50
2023-03-11T10:21:59.562Z,4.50
2023-03-11T10:24:45.793Z,4.50
2023-03-11T10:27:41.881Z,4.70
2023-03-11T10:30:27.809Z,4.90
2023-03-11T10:33:03.639Z,5.00
2023-03-11T10:35:44.739Z,5.10
2023-03-11T10:38:27.207Z,5.20
2023-03-11T10:41:00.037Z,5.30
2023-03-11T10:43:40.207Z,5.30
2023-03-11T10:46:13.490Z,5.30
2023-03-11T10:48:42.693Z,5.20
2023-03-11T10:51:11.855Z,5.20
2023-03-11T10:53:55.247Z,5.20
2023-03-11T10:56:38.491Z,5.30
2023-03-11T10:59:21.576Z,5.30
2023-03-11T11:01:55.801Z,5.30
2023-03-11T11:04:39.646Z,5.30
2023-03-11T11:07:28.193Z,5.30
2023-03-11T11:10:17.293Z,5.30
2023-03-11T11:12:59.522Z,5.30
2023-03-11T11:15:26.519Z,5.30
2023-03-11T11:17:56.569Z,5.30
2023-03-11T11:20:28.949Z,5.40
2023-03-11T11:23:03.551Z,5.40
2023-03-11T11:25:43.077Z,5.40
2023-03-11T11:28:20.139Z,5.40
2023-03-11T11:31:06.591Z,5.30
2023-03-11T11:33:52.826Z,5.30
2023-03-11T11:36:27.771Z,5.30
2023-03-11T11:38:54.809Z,5.30
2023-03-11T11:41:23.465Z,5.40
2023-03-11T11:43:59.022Z,5.40
2023-03-11T11:46:38.323Z,5.40
2023-03-11T11:49:22.397Z,5.50
2023-03-11T11:51:52.130Z,5.60
2023-03-11T11:54:34.305Z,5.60
2023-03-11T11:57:03.735Z,5.70
2023-03-11T11:59:33.115Z,5.70
2023-03-11T12:02:37.697Z,5.80
2023-03-11T12:05:28.777Z,5.90
2023-03-11T12:08:23.823Z,5.90
2023-03-11T12:11:04.279Z,6.00
2023-03-11T12:14:04.453Z,6.00
2023-03-11T12:16:48.650Z,5.90
2023-03-11T12:19:41.624Z,5.80
2023-03-11T12:22:23.088Z,5.80
2023-03-11T12:25:22.047Z,5.80
2023-03-11T12:28:04.215Z,5.80
2023-03-11T12:30:33.799Z,5.90
2023-03-11T12:33:07.100Z,5.90
2023-03-11T12:35:39.159Z,6.00
2023-03-11T12:38:31.237Z,6.00
2023-03-11T12:41:04.772Z,6.10
2023-03-11T12:43:34.031Z,6.10
2023-03-11T12:46:04.502Z,6.10
2023-03-11T12:48:36.455Z,6.20
2023-03-11T12:51:06.465Z,6.30
2023-03-11T12:53:49.242Z,6.40
2023-03-11T12:56:31.335Z,6.60
2023-03-11T12:59:11.316Z,6.60
2023-03-11T13:02:03.494Z,6.60
2023-03-11T13:04:31.717Z,6.60
2023-03-11T13:07:04.273Z,6.60
2023-03-11T13:09:38.733Z,6.50
2023-03-11T13:12:45.913Z,6.50
2023-03-11T13:15:18.854Z,6.60
2023-03-11T13:18:02.093Z,6.70
2023-03-11T13:20:41.539Z,6.70
2023-03-11T13:23:14.626Z,6.70
2023-03-11T13:25:55.804Z,6.60
2023-03-11T13:28:40.112Z,6.60
2023-03-11T13:31:42.256Z,6.50
2023-03-11T13:34:30.588Z,6.50
2023-03-11T13:37:26.819Z,6.60
2023-03-11T13:40:14.105Z,6.60
2023-03-11T13:42:47.088Z,6.60
2023-03-11T13:45:29.940Z,6.70
2023-03-11T13:48:16.228Z,6.80
2023-03-11T13:50:51.877Z,6.80
2023-03-11T13:53:26.094Z,6.90
2023-03-11T13:55:53.097Z,6.90
2023-03-11T13:58:27.209Z,6.90
2023-03-11T14:00:54.401Z,6.90
2023-03-11T14:03:25.543Z,6.90
2023-03-11T14:06:05.986Z,6.90
2023-03-11T14:08:36.954Z,6.90
2023-03-11T14:11:10.410Z,6.90
2023-03-11T14:13:48.198Z,7.00
2023-03-11T14:16:20.126Z,7.00
2023-03-11T14:18:52.931Z,6.90
2023-03-11T14:21:23.988Z,7.00
2023-03-11T14:23:54.739Z,7.00
2023-03-11T14:26:31.073Z,7.00
2023-03-11T14:28:59.762Z,6.90
2023-03-11T14:31:40.415Z,7.00
2023-03-11T14:34:12.589Z,7.00
2023-03-11T14:37:23.255Z,7.10
2023-03-11T14:39:54.580Z,7.10
2023-03-11T14:42:34.873Z,7.00
2023-03-11T14:45:18.058Z,6.90
2023-03-11T14:47:44.960Z,6.80
2023-03-11T14:50:16.916Z,6.70
2023-03-11T14:52:49.102Z,6.70
2023-03-11T14:55:21.520Z,6.70
2023-03-11T14:57:59.872Z,6.60
2023-03-11T15:00:33.629Z,6.50
2023-03-11T15:03:22.016Z,6.40
2023-03-11T15:05:54.421Z,6.30
2023-03-11T15:08:22.699Z,6.30
2023-03-11T15:11:10.750Z,6.30
2023-03-11T15:13:40.605Z,6.40
2023-03-11T15:16:30.707Z,6.50
2023-03-11T15:19:23.036Z,6.60
2023-03-11T15:21:55.303Z,6.70
2023-03-11T15:24:32.168Z,6.70
2023-03-11T15:27:08.894Z,6.60
2023-03-11T15:29:36.240Z,6.60
2023-03-11T15:32:25.223Z,6.60
2023-03-11T15:35:22.528Z,6.50
2023-03-11T15:37:52.477Z,6.40
2023-03-11T15:40:44.463Z,6.40
2023-03-11T15:43:15.304Z,6.40
2023-03-11T15:45:46.801Z,6.40
2023-03-11T15:48:16.231Z,6.30
2023-03-11T15:50:56.890Z,6.40
2023-03-11T15:53:36.768Z,6.40
2023-03-11T15:56:08.279Z,6.50
2023-03-11T15:58:36.681Z,6.60
2023-03-11T16:01:08.496Z,6.50
2023-03-11T16:03:40.828Z,6.40
2023-03-11T16:06:09.889Z,6.30
2023-03-11T16:08:38.977Z,6.30
2023-03-11T16:11:11.185Z,6.30
2023-03-11T16:13:38.201Z,6.30
2023-03-11T16:16:05.634Z,6.30
2023-03-11T16:18:36.333Z,6.30
2023-03-11T16:21:08.540Z,6.20
2023-03-11T16:23:50.157Z,6.20
2023-03-11T16:26:22.963Z,6.20
2023-03-11T16:28:49.958Z,6.10
2023-03-11T16:31:17.028Z,6.10
2023-03-11T16:33:46.149Z,6.10
2023-03-11T16:36:13.113Z,6.10
2023-03-11T16:38:47.395Z,6.10
2023-03-11T16:41:16.806Z,6.10
2023-03-11T16:43:48.526Z,6.00
2023-03-11T16:46:15.562Z,6.00
2023-03-11T16:48:42.568Z,5.90
2023-03-11T16:51:09.539Z,5.90
2023-03-11T16:53:38.573Z,5.90
2023-03-11T16:56:06.063Z,5.80
2023-03-11T16:58:37.868Z,5.80
2023-03-11T17:01:07.272Z,5.80
2023-03-11T17:03:42.501Z,5.80
2023-03-11T17:06:12.246Z,5.70
2023-03-11T17:08:46.152Z,5.70
2023-03-11T17:11:19.778Z,5.70
2023-03-11T17:13:46.741Z,5.70
2023-03-11T17:16:13.729Z,5.60
2023-03-11T17:18:43.066Z,5.60
2023-03-11T17:21:11.472Z,5.60
2023-03-11T17:23:40.693Z,5.50
2023-03-11T17:26:15.712Z,5.50
2023-03-11T17:28:42.897Z,5.50
2023-03-11T17:31:14.843Z,5.30
2023-03-11T17:33:44.618Z,5.30
2023-03-11T17:36:15.996Z,5.10
2023-03-11T17:38:47.100Z,4.90
2023-03-11T17:41:17.242Z,4.70
2023-03-11T17:43:51.367Z,4.50
2023-03-11T17:46:22.561Z,4.50
2023-03-11T17:48:52.092Z,4.40
2023-03-11T17:51:25.787Z,4.30
2023-03-11T17:53:56.412Z,4.10
2023-03-11T17:56:23.627Z,4.10
2023-03-11T17:58:50.809Z,4.00
2023-03-11T18:01:22.171Z,4.00
2023-03-11T18:03:49.601Z,4.00
2023-03-11T18:06:17.934Z,3.90
2023-03-11T18:08:44.864Z,3.90
2023-03-11T18:11:18.593Z,3.90
2023-03-11T18:13:46.191Z,3.90
2023-03-11T18:16:21.586Z,3.90
2023-03-11T18:18:54.488Z,3.90
2023-03-11T18:21:23.315Z,3.90
2023-03-11T18:23:55.324Z,3.90
2023-03-11T18:26:30.396Z,3.90
2023-03-11T18:29:03.476Z,3.90
2023-03-11T18:31:30.722Z,3.90
2023-03-11T18:34:12.228Z,3.90
2023-03-11T18:36:39.475Z,3.80
2023-03-11T18:39:12.570Z,3.70
2023-03-11T18:41:42.768Z,3.70
2023-03-11T18:44:14.825Z,3.70
2023-03-11T18:46:42.551Z,3.70
2023-03-11T18:49:13.028Z,3.70
2023-03-11T18:51:41.086Z,3.60
2023-03-11T18:54:15.226Z,3.60
2023-03-11T18:56:42.225Z,3.60
2023-03-11T18:59:13.569Z,3.60
2023-03-11T19:01:40.564Z,3.50
2023-03-11T19:04:07.532Z,3.60
2023-03-11T19:06:34.556Z,3.60
2023-03-11T19:09:01.691Z,3.60
2023-03-11T19:11:28.629Z,3.60
2023-03-11T19:13:55.639Z,3.60
2023-03-11T19:16:32.080Z,3.60
2023-03-11T19:19:01.616Z,3.60
2023-03-11T19:21:30.922Z,3.60
2023-03-11T19:24:00.515Z,3.60
2023-03-11T19:26:43.288Z,3.50
2023-03-11T19:29:18.044Z,3.50
2023-03-11T19:31:52.158Z,3.50
2023-03-11T19:34:21.442Z,3.50
2023-03-11T19:36:48.483Z,3.50
2023-03-11T19:39:20.121Z,3.50
2023-03-11T19:41:49.175Z,3.50
2023-03-11T19:44:16.325Z,3.50
2023-03-11T19:46:43.303Z,3.50
2023-03-11T19:49:12.515Z,3.50
2023-03-11T19:51:49.592Z,3.50
2023-03-11T19:54:17.683Z,3.50
2023-03-11T19:56:44.931Z,3.50
2023-03-11T19:59:12.079Z,3.50
2023-03-11T20:01:43.831Z,3.50
2023-03-11T20:04:11.224Z,3.50
2023-03-11T20:06:38.435Z,3.50
2023-03-11T20:09:06.913Z,3.50
2023-03-11T20:11:39.166Z,3.50
2023-03-11T20:14:08.504Z,3.50
2023-03-11T20:16:37.837Z,3.50
2023-03-11T20:19:04.899Z,3.50
2023-03-11T20:21:32.255Z,3.50
2023-03-11T20:23:59.230Z,3.50
2023-03-11T20:26:28.413Z,3.50
2023-03-11T20:28:56.150Z,3.50
2023-03-11T20:31:23.929Z,3.60
2023-03-11T20:33:51.163Z,3.60
2023-03-11T20:36:22.722Z,3.60
2023-03-11T20:38:50.509Z,3.60
2023-03-11T20:41:17.559Z,3.60
2023-03-11T20:43:47.035Z,3.70
2023-03-11T20:46:14.085Z,3.70
2023-03-11T20:48:41.211Z,3.70
2023-03-11T20:51:16.539Z,3.70
2023-03-11T20:53:43.728Z,3.70
2023-03-11T20:56:12.935Z,3.80
2023-03-11T20:58:39.961Z,3.80
2023-03-11T21:01:12.311Z,3.90
2023-03-11T21:03:39.501Z,3.90
2023-03-11T21:06:13.753Z,3.90
2023-03-11T21:08:43.188Z,3.90
2023-03-11T21:11:12.214Z,4.00
2023-03-11T21:13:44.890Z,4.00
2023-03-11T21:16:14.512Z,4.00
2023-03-11T21:18:43.439Z,4.00
2023-03-11T21:21:11.829Z,4.00
2023-03-11T21:23:42.107Z,4.10
2023-03-11T21:26:11.584Z,4.10
2023-03-11T21:28:42.358Z,4.10
2023-03-11T21:31:11.247Z,4.20
2023-03-11T21:33:39.194Z,4.20
2023-03-11T21:36:08.881Z,4.20
2023-03-11T21:38:40.798Z,4.20
2023-03-11T21:41:16.855Z,4.20
2023-03-11T21:43:44.154Z,4.30
2023-03-11T21:46:13.291Z,4.30
2023-03-11T21:48:42.555Z,4.30
2023-03-11T21:51:09.596Z,4.30
2023-03-11T21:53:36.881Z,4.40
2023-03-11T21:56:06.580Z,4.40
2023-03-11T21:58:33.693Z,4.40
2023-03-11T22:01:00.937Z,4.40
2023-03-11T22:03:28.192Z,4.40
2023-03-11T22:05:59.337Z,4.50
2023-03-11T22:08:28.795Z,4.50
2023-03-11T22:10:58.244Z,4.50
2023-03-11T22:13:25.295Z,4.50
2023-03-11T22:15:54.861Z,4.50
2023-03-11T22:18:23.979Z,4.50
2023-03-11T22:20:50.900Z,4.50
2023-03-11T22:23:20.053Z,4.50
2023-03-11T22:25:46.998Z,4.50
2023-03-11T22:28:16.438Z,4.50
2023-03-11T22:30:45.618Z,4.50
2023-03-11T22:33:14.680Z,4.50
2023-03-11T22:35:55.136Z,4.50
2023-03-11T22:38:26.737Z,4.60
2023-03-11T22:40:56.404Z,4.60
2023-03-11T22:43:25.552Z,4.70
2023-03-11T22:46:02.143Z,4.70
2023-03-11T22:48:29.289Z,4.70
2023-03-11T22:50:58.518Z,4.70
2023-03-11T22:53:25.495Z,4.70
2023-03-11T22:55:55.072Z,4.70
2023-03-11T22:58:22.118Z,4.70
2023-03-11T23:00:51.581Z,4.70
2023-03-11T23:03:23.212Z,4.80
2023-03-11T23:05:52.521Z,4.90
2023-03-11T23:08:21.949Z,4.90
2023-03-11T23:10:51.389Z,4.90
2023-03-11T23:13:18.517Z,4.90
2023-03-11T23:15:46.184Z,4.90
2023-03-11T23:18:13.408Z,5.00
2023-03-11T23:20:40.994Z,5.00
2023-03-11T23:23:08.608Z,5.00
2023-03-11T23:25:35.818Z,5.00
2023-03-11T23:28:06.452Z,5.00
2023-03-11T23:30:33.459Z,5.00
2023-03-11T23:33:02.868Z,5.00
2023-03-11T23:35:32.578Z,5.00
2023-03-11T23:37:59.829Z,5.00
2023-03-11T23:40:32.104Z,5.00
2023-03-11T23:43:00.500Z,5.00
2023-03-11T23:45:27.525Z,5.00
2023-03-11T23:47:54.495Z,5.00
2023-03-11T23:50:21.409Z,5.10
2023-03-11T23:52:48.388Z,5.30
2023-03-11T23:55:15.330Z,5.30
2023-03-11T23:57:42.289Z,5.30
